Scf Alpine — A8XQ2 — position and weather

sailwx.info

Track history (hours):
 
Tides and Currents Weather Stations Pressure Air Temp Water Temp Dewpoint Dewpoint Depression Visibility Wind Speed Wind Dir Waves Ship Positions

Scf Alpine

Last reported at 2018-Apr-21 06:00 UTC. Time now 2018-Apr-21 06:10 UTC.
Position N 06°03' E 001°14'.

Length 228 m; draft 10 m.

Type: Tanker. MMSI: 636014957.

Date/timePositionNaut miles runAvg speedWind from/ knotsBaromVisibWave heightAir tempDewpointWater temp
2018-Apr-21 06:00N 06°03' E 001°14'0 0.0
2018-Apr-21 05:30N 06°03' E 001°14'0 0.0
2018-Apr-21 05:00N 06°03' E 001°14'0 0.0
2018-Apr-21 04:30N 06°03' E 001°14'0 0.0
2018-Apr-21 03:56N 06°03' E 001°14'0 0.0
2018-Apr-21 03:30N 06°03' E 001°14'0 0.0
2018-Apr-21 02:59N 06°03' E 001°14'0 0.1
2018-Apr-21 02:30N 06°03' E 001°14'0 0.2
2018-Apr-21 02:00N 06°03' E 001°14'0 0.0
2018-Apr-21 01:30N 06°03' E 001°14'0 0.0
2018-Apr-21 00:48N 06°03' E 001°14'0 0.0
2018-Apr-21 00:30N 06°03' E 001°14'0 0.1
2018-Apr-20 23:56N 06°03' E 001°14'0 0.0
2018-Apr-20 23:30N 06°03' E 001°14'0 0.0
2018-Apr-20 22:59N 06°03' E 001°14'0 0.0
2018-Apr-20 22:25N 06°03' E 001°14'0 0.1
2018-Apr-20 21:46N 06°03' E 001°14'0 0.0
2018-Apr-20 21:28N 06°03' E 001°14'0 0.0
2018-Apr-20 19:55N 06°03' E 001°14'0 0.0
2018-Apr-20 19:22N 06°03' E 001°14'0 0.0
2018-Apr-20 19:00N 06°03' E 001°14'0 0.0
2018-Apr-20 18:30N 06°03' E 001°14'0 0.0
2018-Apr-20 18:00N 06°03' E 001°14'0 0.0
2018-Apr-20 17:30N 06°03' E 001°14'0 0.0
2018-Apr-20 17:01N 06°03' E 001°14'0 0.1
2018-Apr-20 16:30N 06°03' E 001°14'0 0.0
2018-Apr-20 16:00N 06°03' E 001°14'0 0.1
2018-Apr-20 15:30N 06°03' E 001°14'0 0.0
2018-Apr-20 15:00N 06°03' E 001°14'1 0.9
2018-Apr-20 14:21N 06°03' E 001°14'5 2.6
2018-Apr-20 12:24N 05°59' E 001°12'4 0.8
2018-Apr-20 07:31N 06°02' E 001°13'0 0.5
2018-Apr-20 07:22N 06°02' E 001°13'0 0.2
2018-Apr-20 07:00N 06°02' E 001°13'1 1.5
2018-Apr-20 06:30N 06°03' E 001°14'1 2.2
2018-Apr-20 05:59N 06°04' E 001°14'0 0.1
2018-Apr-20 03:53N 06°04' E 001°14'0 0.0
2018-Apr-20 03:17N 06°04' E 001°14'0 0.0
2018-Apr-20 02:47N 06°04' E 001°14'0 0.0
2018-Apr-20 02:29N 06°04' E 001°14'0 0.0
2018-Apr-20 01:47N 06°04' E 001°14'0 0.0
2018-Apr-19 23:50N 06°04' E 001°14'0 0.0
2018-Apr-19 23:29N 06°04' E 001°14'0 0.0
2018-Apr-19 22:59N 06°04' E 001°14'0 0.0
2018-Apr-19 22:29N 06°04' E 001°14'0 0.0
2018-Apr-19 21:59N 06°04' E 001°14'0 0.0
2018-Apr-19 21:23N 06°04' E 001°14'0 0.0
2018-Apr-19 20:59N 06°04' E 001°14'0 0.0
2018-Apr-19 20:17N 06°04' E 001°14'0 0.0
2018-Apr-19 19:59N 06°04' E 001°14'0 0.0
2018-Apr-19 19:26N 06°04' E 001°14'0 0.0
2018-Apr-19 18:53N 06°04' E 001°14'0 0.0
2018-Apr-19 18:29N 06°04' E 001°14'0 0.0
2018-Apr-19 17:59N 06°04' E 001°14'0 0.0
2018-Apr-19 17:31N 06°04' E 001°14'0 0.0
2018-Apr-19 17:00N 06°04' E 001°14'0 0.0
2018-Apr-19 16:30N 06°04' E 001°14'1 1.2
2018-Apr-19 15:49N 06°04' E 001°15'3 8.7
2018-Apr-19 15:29N 06°06' E 001°18'2 3.5
2018-Apr-19 14:55N 06°06' E 001°20'  
Track history (hours):
 
Tides and Currents Weather Stations Pressure Air Temp Water Temp Dewpoint Dewpoint Depression Visibility Wind Speed Wind Dir Waves Ship Positions

Scf Alpine

Last reported at 2018-Apr-21 06:00 UTC. Time now 2018-Apr-21 06:10 UTC.
Position N 06°03' E 001°14'.

Length 228 m; draft 10 m.

Type: Tanker. MMSI: 636014957.

Date/timePositionNaut miles runAvg speedWind from/ knotsBaromVisibWave heightAir tempDewpointWater temp
2018-Apr-21 06:00N 06°03' E 001°14'0 0.0
2018-Apr-21 05:30N 06°03' E 001°14'0 0.0
2018-Apr-21 05:00N 06°03' E 001°14'0 0.0
2018-Apr-21 04:30N 06°03' E 001°14'0 0.0
2018-Apr-21 03:56N 06°03' E 001°14'0 0.0
2018-Apr-21 03:30N 06°03' E 001°14'0 0.0
2018-Apr-21 02:59N 06°03' E 001°14'0 0.1
2018-Apr-21 02:30N 06°03' E 001°14'0 0.2
2018-Apr-21 02:00N 06°03' E 001°14'0 0.0
2018-Apr-21 01:30N 06°03' E 001°14'0 0.0
2018-Apr-21 00:48N 06°03' E 001°14'0 0.0
2018-Apr-21 00:30N 06°03' E 001°14'0 0.1
2018-Apr-20 23:56N 06°03' E 001°14'0 0.0
2018-Apr-20 23:30N 06°03' E 001°14'0 0.0
2018-Apr-20 22:59N 06°03' E 001°14'0 0.0
2018-Apr-20 22:25N 06°03' E 001°14'0 0.1
2018-Apr-20 21:46N 06°03' E 001°14'0 0.0
2018-Apr-20 21:28N 06°03' E 001°14'0 0.0
2018-Apr-20 19:55N 06°03' E 001°14'0 0.0
2018-Apr-20 19:22N 06°03' E 001°14'0 0.0
2018-Apr-20 19:00N 06°03' E 001°14'0 0.0
2018-Apr-20 18:30N 06°03' E 001°14'0 0.0
2018-Apr-20 18:00N 06°03' E 001°14'0 0.0
2018-Apr-20 17:30N 06°03' E 001°14'0 0.0
2018-Apr-20 17:01N 06°03' E 001°14'0 0.1
2018-Apr-20 16:30N 06°03' E 001°14'0 0.0
2018-Apr-20 16:00N 06°03' E 001°14'0 0.1
2018-Apr-20 15:30N 06°03' E 001°14'0 0.0
2018-Apr-20 15:00N 06°03' E 001°14'1 0.9
2018-Apr-20 14:21N 06°03' E 001°14'5 2.6
2018-Apr-20 12:24N 05°59' E 001°12'4 0.8
2018-Apr-20 07:31N 06°02' E 001°13'0 0.5
2018-Apr-20 07:22N 06°02' E 001°13'0 0.2
2018-Apr-20 07:00N 06°02' E 001°13'1 1.5
2018-Apr-20 06:30N 06°03' E 001°14'1 2.2
2018-Apr-20 05:59N 06°04' E 001°14'0 0.1
2018-Apr-20 03:53N 06°04' E 001°14'0 0.0
2018-Apr-20 03:17N 06°04' E 001°14'0 0.0
2018-Apr-20 02:47N 06°04' E 001°14'0 0.0
2018-Apr-20 02:29N 06°04' E 001°14'0 0.0
2018-Apr-20 01:47N 06°04' E 001°14'0 0.0
2018-Apr-19 23:50N 06°04' E 001°14'0 0.0
2018-Apr-19 23:29N 06°04' E 001°14'0 0.0
2018-Apr-19 22:59N 06°04' E 001°14'0 0.0
2018-Apr-19 22:29N 06°04' E 001°14'0 0.0
2018-Apr-19 21:59N 06°04' E 001°14'0 0.0
2018-Apr-19 21:23N 06°04' E 001°14'0 0.0
2018-Apr-19 20:59N 06°04' E 001°14'0 0.0
2018-Apr-19 20:17N 06°04' E 001°14'0 0.0
2018-Apr-19 19:59N 06°04' E 001°14'0 0.0
2018-Apr-19 19:26N 06°04' E 001°14'0 0.0
2018-Apr-19 18:53N 06°04' E 001°14'0 0.0
2018-Apr-19 18:29N 06°04' E 001°14'0 0.0
2018-Apr-19 17:59N 06°04' E 001°14'0 0.0
2018-Apr-19 17:31N 06°04' E 001°14'0 0.0
2018-Apr-19 17:00N 06°04' E 001°14'0 0.0
2018-Apr-19 16:30N 06°04' E 001°14'1 1.2
2018-Apr-19 15:49N 06°04' E 001°15'3 8.7
2018-Apr-19 15:29N 06°06' E 001°18'2 3.5
2018-Apr-19 14:55N 06°06' E 001°20'  

Dump ship's entire track history